sensor_id;sensor_type;location;lat;lon;timestamp;P1;durP1;ratioP1;P2;durP2;ratioP2
64619;SDS011;51029;51.058;13.826;2023-01-19T00:00:06;17.80;;;12.17;;
64619;SDS011;51029;51.058;13.826;2023-01-19T00:02:36;19.00;;;13.90;;
64619;SDS011;51029;51.058;13.826;2023-01-19T00:05:02;20.63;;;12.83;;
64619;SDS011;51029;51.058;13.826;2023-01-19T00:07:31;18.90;;;13.70;;
64619;SDS011;51029;51.058;13.826;2023-01-19T00:09:57;18.60;;;12.30;;
64619;SDS011;51029;51.058;13.826;2023-01-19T00:12:23;20.50;;;13.33;;
64619;SDS011;51029;51.058;13.826;2023-01-19T00:14:48;20.07;;;13.37;;
64619;SDS011;51029;51.058;13.826;2023-01-19T00:17:14;18.77;;;12.90;;
64619;SDS011;51029;51.058;13.826;2023-01-19T00:19:39;22.77;;;12.67;;
64619;SDS011;51029;51.058;13.826;2023-01-19T00:22:05;21.23;;;13.47;;
64619;SDS011;51029;51.058;13.826;2023-01-19T00:24:31;18.63;;;13.00;;
64619;SDS011;51029;51.058;13.826;2023-01-19T00:26:57;18.97;;;12.67;;
64619;SDS011;51029;51.058;13.826;2023-01-19T00:29:22;19.67;;;13.43;;
64619;SDS011;51029;51.058;13.826;2023-01-19T00:31:48;20.27;;;13.43;;
64619;SDS011;51029;51.058;13.826;2023-01-19T00:34:14;19.77;;;13.17;;
64619;SDS011;51029;51.058;13.826;2023-01-19T00:36:40;18.57;;;13.03;;
64619;SDS011;51029;51.058;13.826;2023-01-19T00:39:06;18.10;;;12.40;;
64619;SDS011;51029;51.058;13.826;2023-01-19T00:41:32;19.37;;;13.47;;
64619;SDS011;51029;51.058;13.826;2023-01-19T00:44:16;20.83;;;13.70;;
64619;SDS011;51029;51.058;13.826;2023-01-19T00:46:42;18.63;;;12.33;;
64619;SDS011;51029;51.058;13.826;2023-01-19T00:49:08;18.27;;;12.77;;
64619;SDS011;51029;51.058;13.826;2023-01-19T00:51:34;19.23;;;13.23;;
64619;SDS011;51029;51.058;13.826;2023-01-19T00:53:59;19.67;;;13.13;;
64619;SDS011;51029;51.058;13.826;2023-01-19T00:56:29;18.67;;;12.20;;
64619;SDS011;51029;51.058;13.826;2023-01-19T00:58:55;19.40;;;13.40;;
64619;SDS011;51029;51.058;13.826;2023-01-19T01:01:21;20.93;;;12.73;;
64619;SDS011;51029;51.058;13.826;2023-01-19T01:03:46;22.20;;;12.90;;
64619;SDS011;51029;51.058;13.826;2023-01-19T01:06:12;23.27;;;12.43;;
64619;SDS011;51029;51.058;13.826;2023-01-19T01:08:37;21.40;;;11.87;;
64619;SDS011;51029;51.058;13.826;2023-01-19T01:11:03;16.43;;;11.63;;
64619;SDS011;51029;51.058;13.826;2023-01-19T01:13:29;18.47;;;12.17;;
64619;SDS011;51029;51.058;13.826;2023-01-19T01:15:55;16.73;;;12.47;;
64619;SDS011;51029;51.058;13.826;2023-01-19T01:18:21;17.60;;;11.70;;
64619;SDS011;51029;51.058;13.826;2023-01-19T01:20:47;19.70;;;12.20;;
64619;SDS011;51029;51.058;13.826;2023-01-19T01:23:13;17.87;;;12.07;;
64619;SDS011;51029;51.058;13.826;2023-01-19T01:25:38;20.20;;;12.03;;
64619;SDS011;51029;51.058;13.826;2023-01-19T01:28:05;18.47;;;12.80;;
64619;SDS011;51029;51.058;13.826;2023-01-19T01:30:32;17.17;;;11.63;;
64619;SDS011;51029;51.058;13.826;2023-01-19T01:33:05;16.97;;;11.57;;
64619;SDS011;51029;51.058;13.826;2023-01-19T01:35:31;14.63;;;11.57;;
64619;SDS011;51029;51.058;13.826;2023-01-19T01:37:58;17.27;;;11.83;;
64619;SDS011;51029;51.058;13.826;2023-01-19T01:40:24;21.00;;;12.30;;
64619;SDS011;51029;51.058;13.826;2023-01-19T01:42:50;17.07;;;11.83;;
64619;SDS011;51029;51.058;13.826;2023-01-19T01:48:12;16.03;;;11.70;;
64619;SDS011;51029;51.058;13.826;2023-01-19T01:50:47;15.63;;;12.30;;
64619;SDS011;51029;51.058;13.826;2023-01-19T01:53:40;17.90;;;11.50;;
64619;SDS011;51029;51.058;13.826;2023-01-19T01:56:08;14.37;;;10.47;;
64619;SDS011;51029;51.058;13.826;2023-01-19T01:58:37;19.60;;;11.90;;
64619;SDS011;51029;51.058;13.826;2023-01-19T02:01:03;16.37;;;11.17;;
64619;SDS011;51029;51.058;13.826;2023-01-19T02:03:49;16.90;;;11.23;;
64619;SDS011;51029;51.058;13.826;2023-01-19T02:06:15;18.13;;;11.37;;
64619;SDS011;51029;51.058;13.826;2023-01-19T02:08:56;17.10;;;10.40;;
64619;SDS011;51029;51.058;13.826;2023-01-19T02:11:46;15.83;;;11.20;;
64619;SDS011;51029;51.058;13.826;2023-01-19T02:14:30;15.93;;;10.93;;
64619;SDS011;51029;51.058;13.826;2023-01-19T02:16:56;16.03;;;11.50;;
64619;SDS011;51029;51.058;13.826;2023-01-19T02:19:26;16.47;;;11.43;;
64619;SDS011;51029;51.058;13.826;2023-01-19T02:22:02;16.87;;;9.97;;
64619;SDS011;51029;51.058;13.826;2023-01-19T02:24:39;15.33;;;9.63;;
64619;SDS011;51029;51.058;13.826;2023-01-19T02:27:05;14.77;;;10.87;;
64619;SDS011;51029;51.058;13.826;2023-01-19T02:29:31;14.87;;;11.23;;
64619;SDS011;51029;51.058;13.826;2023-01-19T02:31:58;16.77;;;10.77;;
64619;SDS011;51029;51.058;13.826;2023-01-19T02:34:26;15.13;;;10.43;;
64619;SDS011;51029;51.058;13.826;2023-01-19T02:36:53;15.50;;;10.47;;
64619;SDS011;51029;51.058;13.826;2023-01-19T02:39:25;16.67;;;11.47;;
64619;SDS011;51029;51.058;13.826;2023-01-19T02:42:01;14.33;;;10.20;;
64619;SDS011;51029;51.058;13.826;2023-01-19T02:44:29;13.93;;;10.27;;
64619;SDS011;51029;51.058;13.826;2023-01-19T02:46:56;16.37;;;9.87;;
64619;SDS011;51029;51.058;13.826;2023-01-19T02:49:22;11.93;;;8.90;;
64619;SDS011;51029;51.058;13.826;2023-01-19T02:51:48;12.47;;;9.63;;
64619;SDS011;51029;51.058;13.826;2023-01-19T02:55:15;15.47;;;9.87;;
64619;SDS011;51029;51.058;13.826;2023-01-19T03:03:08;16.53;;;9.67;;
64619;SDS011;51029;51.058;13.826;2023-01-19T03:05:56;14.70;;;9.03;;
64619;SDS011;51029;51.058;13.826;2023-01-19T03:11:00;16.47;;;10.23;;
64619;SDS011;51029;51.058;13.826;2023-01-19T03:21:41;14.57;;;10.07;;
64619;SDS011;51029;51.058;13.826;2023-01-19T03:24:11;14.70;;;9.73;;
64619;SDS011;51029;51.058;13.826;2023-01-19T03:26:50;16.13;;;9.70;;
64619;SDS011;51029;51.058;13.826;2023-01-19T03:29:21;15.20;;;9.93;;
64619;SDS011;51029;51.058;13.826;2023-01-19T03:31:52;14.43;;;9.27;;
64619;SDS011;51029;51.058;13.826;2023-01-19T03:34:18;15.83;;;10.70;;
64619;SDS011;51029;51.058;13.826;2023-01-19T03:36:51;16.93;;;10.00;;
64619;SDS011;51029;51.058;13.826;2023-01-19T03:39:20;14.33;;;9.47;;
64619;SDS011;51029;51.058;13.826;2023-01-19T03:41:47;15.60;;;9.37;;
64619;SDS011;51029;51.058;13.826;2023-01-19T03:44:15;14.57;;;9.77;;
64619;SDS011;51029;51.058;13.826;2023-01-19T03:46:41;14.50;;;10.20;;
64619;SDS011;51029;51.058;13.826;2023-01-19T03:49:09;15.67;;;9.70;;
64619;SDS011;51029;51.058;13.826;2023-01-19T03:51:36;13.67;;;9.13;;
64619;SDS011;51029;51.058;13.826;2023-01-19T03:54:03;14.53;;;9.60;;
64619;SDS011;51029;51.058;13.826;2023-01-19T03:56:30;14.73;;;9.17;;
64619;SDS011;51029;51.058;13.826;2023-01-19T03:58:55;14.37;;;10.03;;
64619;SDS011;51029;51.058;13.826;2023-01-19T04:01:22;14.80;;;9.87;;
64619;SDS011;51029;51.058;13.826;2023-01-19T04:03:49;14.53;;;9.43;;
64619;SDS011;51029;51.058;13.826;2023-01-19T04:06:15;14.20;;;9.37;;
64619;SDS011;51029;51.058;13.826;2023-01-19T04:08:41;15.13;;;9.43;;
64619;SDS011;51029;51.058;13.826;2023-01-19T04:11:07;13.47;;;9.43;;
64619;SDS011;51029;51.058;13.826;2023-01-19T04:13:33;14.27;;;9.23;;
64619;SDS011;51029;51.058;13.826;2023-01-19T04:15:59;12.97;;;8.07;;
64619;SDS011;51029;51.058;13.826;2023-01-19T04:18:26;12.53;;;9.17;;
64619;SDS011;51029;51.058;13.826;2023-01-19T04:20:53;14.17;;;10.57;;
64619;SDS011;51029;51.058;13.826;2023-01-19T04:23:18;13.10;;;9.00;;
64619;SDS011;51029;51.058;13.826;2023-01-19T04:25:44;15.03;;;8.23;;
64619;SDS011;51029;51.058;13.826;2023-01-19T04:28:10;14.03;;;8.33;;
64619;SDS011;51029;51.058;13.826;2023-01-19T04:30:35;14.53;;;8.70;;
64619;SDS011;51029;51.058;13.826;2023-01-19T04:33:01;11.57;;;8.43;;
64619;SDS011;51029;51.058;13.826;2023-01-19T04:35:27;11.50;;;8.47;;
64619;SDS011;51029;51.058;13.826;2023-01-19T04:37:52;13.30;;;7.87;;
64619;SDS011;51029;51.058;13.826;2023-01-19T04:40:18;10.40;;;7.73;;
64619;SDS011;51029;51.058;13.826;2023-01-19T04:42:44;12.90;;;8.93;;
64619;SDS011;51029;51.058;13.826;2023-01-19T04:45:12;13.57;;;8.13;;
64619;SDS011;51029;51.058;13.826;2023-01-19T04:47:38;9.83;;;7.37;;
64619;SDS011;51029;51.058;13.826;2023-01-19T04:50:06;9.93;;;7.20;;
64619;SDS011;51029;51.058;13.826;2023-01-19T04:52:33;12.17;;;8.00;;
64619;SDS011;51029;51.058;13.826;2023-01-19T04:55:03;12.37;;;7.30;;
64619;SDS011;51029;51.058;13.826;2023-01-19T04:57:29;11.13;;;7.30;;
64619;SDS011;51029;51.058;13.826;2023-01-19T04:59:58;11.87;;;7.37;;
64619;SDS011;51029;51.058;13.826;2023-01-19T05:02:24;13.27;;;7.30;;
64619;SDS011;51029;51.058;13.826;2023-01-19T05:04:50;14.67;;;8.03;;
64619;SDS011;51029;51.058;13.826;2023-01-19T05:07:15;10.30;;;7.60;;
64619;SDS011;51029;51.058;13.826;2023-01-19T05:09:41;13.00;;;7.10;;
64619;SDS011;51029;51.058;13.826;2023-01-19T05:12:07;13.87;;;7.57;;
64619;SDS011;51029;51.058;13.826;2023-01-19T05:14:32;8.53;;;6.23;;
64619;SDS011;51029;51.058;13.826;2023-01-19T05:16:58;11.10;;;6.77;;
64619;SDS011;51029;51.058;13.826;2023-01-19T05:19:24;9.60;;;6.80;;
64619;SDS011;51029;51.058;13.826;2023-01-19T05:21:50;11.07;;;7.03;;
64619;SDS011;51029;51.058;13.826;2023-01-19T05:24:15;10.30;;;6.93;;
64619;SDS011;51029;51.058;13.826;2023-01-19T05:26:42;11.23;;;7.60;;
64619;SDS011;51029;51.058;13.826;2023-01-19T05:29:07;9.10;;;6.27;;
64619;SDS011;51029;51.058;13.826;2023-01-19T05:31:34;11.17;;;7.07;;
64619;SDS011;51029;51.058;13.826;2023-01-19T05:34:00;9.90;;;6.43;;
64619;SDS011;51029;51.058;13.826;2023-01-19T05:36:26;9.87;;;6.87;;
64619;SDS011;51029;51.058;13.826;2023-01-19T05:38:52;9.10;;;6.53;;
64619;SDS011;51029;51.058;13.826;2023-01-19T05:41:17;11.20;;;6.60;;
64619;SDS011;51029;51.058;13.826;2023-01-19T05:43:43;11.30;;;7.17;;
64619;SDS011;51029;51.058;13.826;2023-01-19T05:46:08;10.90;;;6.83;;
64619;SDS011;51029;51.058;13.826;2023-01-19T05:48:34;6.67;;;5.47;;
64619;SDS011;51029;51.058;13.826;2023-01-19T05:51:00;9.17;;;6.33;;
64619;SDS011;51029;51.058;13.826;2023-01-19T05:53:26;8.87;;;6.20;;
64619;SDS011;51029;51.058;13.826;2023-01-19T05:55:53;8.97;;;5.90;;
64619;SDS011;51029;51.058;13.826;2023-01-19T05:58:26;9.57;;;5.87;;
64619;SDS011;51029;51.058;13.826;2023-01-19T06:00:52;8.37;;;5.43;;
64619;SDS011;51029;51.058;13.826;2023-01-19T06:03:18;10.90;;;6.43;;
64619;SDS011;51029;51.058;13.826;2023-01-19T06:05:43;8.73;;;5.83;;
64619;SDS011;51029;51.058;13.826;2023-01-19T06:08:09;9.23;;;5.83;;
64619;SDS011;51029;51.058;13.826;2023-01-19T06:10:34;9.87;;;5.87;;
64619;SDS011;51029;51.058;13.826;2023-01-19T06:13:00;10.10;;;6.23;;
64619;SDS011;51029;51.058;13.826;2023-01-19T06:15:25;9.53;;;6.10;;
64619;SDS011;51029;51.058;13.826;2023-01-19T06:17:51;7.70;;;5.50;;
64619;SDS011;51029;51.058;13.826;2023-01-19T06:20:16;8.67;;;6.17;;
64619;SDS011;51029;51.058;13.826;2023-01-19T06:22:42;7.40;;;5.07;;
64619;SDS011;51029;51.058;13.826;2023-01-19T06:25:08;8.13;;;5.30;;
64619;SDS011;51029;51.058;13.826;2023-01-19T06:27:33;8.40;;;5.20;;
64619;SDS011;51029;51.058;13.826;2023-01-19T06:30:00;9.33;;;5.83;;
64619;SDS011;51029;51.058;13.826;2023-01-19T06:32:26;8.87;;;5.40;;
64619;SDS011;51029;51.058;13.826;2023-01-19T06:34:51;7.37;;;5.43;;
64619;SDS011;51029;51.058;13.826;2023-01-19T06:37:17;8.47;;;5.20;;
64619;SDS011;51029;51.058;13.826;2023-01-19T06:39:42;7.80;;;5.57;;
64619;SDS011;51029;51.058;13.826;2023-01-19T06:42:09;7.80;;;5.23;;
64619;SDS011;51029;51.058;13.826;2023-01-19T06:44:35;8.07;;;5.97;;
64619;SDS011;51029;51.058;13.826;2023-01-19T06:47:00;7.83;;;4.83;;
64619;SDS011;51029;51.058;13.826;2023-01-19T06:49:26;9.00;;;5.90;;
64619;SDS011;51029;51.058;13.826;2023-01-19T06:51:51;8.67;;;6.40;;
64619;SDS011;51029;51.058;13.826;2023-01-19T06:54:17;10.13;;;6.73;;
64619;SDS011;51029;51.058;13.826;2023-01-19T06:56:42;29.47;;;16.70;;
64619;SDS011;51029;51.058;13.826;2023-01-19T06:59:08;41.87;;;22.57;;
64619;SDS011;51029;51.058;13.826;2023-01-19T07:01:33;27.27;;;18.10;;
64619;SDS011;51029;51.058;13.826;2023-01-19T07:03:59;30.27;;;18.73;;
64619;SDS011;51029;51.058;13.826;2023-01-19T07:06:25;37.77;;;23.70;;
64619;SDS011;51029;51.058;13.826;2023-01-19T07:08:50;34.43;;;23.40;;
64619;SDS011;51029;51.058;13.826;2023-01-19T07:11:16;25.43;;;16.30;;
64619;SDS011;51029;51.058;13.826;2023-01-19T07:13:41;17.40;;;10.43;;
64619;SDS011;51029;51.058;13.826;2023-01-19T07:16:11;12.50;;;9.73;;
64619;SDS011;51029;51.058;13.826;2023-01-19T07:18:38;10.63;;;6.90;;
64619;SDS011;51029;51.058;13.826;2023-01-19T07:21:04;11.97;;;7.17;;
64619;SDS011;51029;51.058;13.826;2023-01-19T07:23:31;12.27;;;7.10;;
64619;SDS011;51029;51.058;13.826;2023-01-19T07:25:56;14.63;;;7.40;;
64619;SDS011;51029;51.058;13.826;2023-01-19T07:28:23;11.87;;;7.80;;
64619;SDS011;51029;51.058;13.826;2023-01-19T07:30:55;12.83;;;8.37;;
64619;SDS011;51029;51.058;13.826;2023-01-19T07:33:21;12.20;;;7.47;;
64619;SDS011;51029;51.058;13.826;2023-01-19T07:35:47;11.43;;;7.90;;
64619;SDS011;51029;51.058;13.826;2023-01-19T07:38:13;12.20;;;7.30;;
64619;SDS011;51029;51.058;13.826;2023-01-19T07:40:40;9.07;;;7.03;;
64619;SDS011;51029;51.058;13.826;2023-01-19T07:43:05;9.07;;;6.47;;
64619;SDS011;51029;51.058;13.826;2023-01-19T07:45:31;9.70;;;6.73;;
64619;SDS011;51029;51.058;13.826;2023-01-19T07:47:57;10.67;;;6.70;;
64619;SDS011;51029;51.058;13.826;2023-01-19T07:50:22;8.67;;;6.00;;
64619;SDS011;51029;51.058;13.826;2023-01-19T07:52:50;12.27;;;7.57;;
64619;SDS011;51029;51.058;13.826;2023-01-19T07:55:17;9.67;;;7.43;;
64619;SDS011;51029;51.058;13.826;2023-01-19T07:57:44;12.23;;;9.57;;
64619;SDS011;51029;51.058;13.826;2023-01-19T08:00:11;16.20;;;12.30;;
64619;SDS011;51029;51.058;13.826;2023-01-19T08:02:38;15.63;;;12.10;;
64619;SDS011;51029;51.058;13.826;2023-01-19T08:05:05;30.97;;;24.40;;
64619;SDS011;51029;51.058;13.826;2023-01-19T08:07:31;13.63;;;12.20;;
64619;SDS011;51029;51.058;13.826;2023-01-19T08:09:57;8.60;;;7.70;;
64619;SDS011;51029;51.058;13.826;2023-01-19T08:12:23;8.63;;;7.20;;
64619;SDS011;51029;51.058;13.826;2023-01-19T08:14:49;8.73;;;7.13;;
64619;SDS011;51029;51.058;13.826;2023-01-19T08:17:14;9.10;;;6.53;;
64619;SDS011;51029;51.058;13.826;2023-01-19T08:19:41;8.70;;;7.13;;
64619;SDS011;51029;51.058;13.826;2023-01-19T08:22:07;7.70;;;6.20;;
64619;SDS011;51029;51.058;13.826;2023-01-19T08:24:32;8.83;;;6.97;;
64619;SDS011;51029;51.058;13.826;2023-01-19T08:26:58;8.67;;;5.83;;
64619;SDS011;51029;51.058;13.826;2023-01-19T08:29:25;7.53;;;5.80;;
64619;SDS011;51029;51.058;13.826;2023-01-19T08:31:51;7.27;;;5.43;;
64619;SDS011;51029;51.058;13.826;2023-01-19T08:34:19;8.27;;;5.70;;
64619;SDS011;51029;51.058;13.826;2023-01-19T08:36:45;9.63;;;6.20;;
64619;SDS011;51029;51.058;13.826;2023-01-19T08:39:11;7.37;;;5.77;;
64619;SDS011;51029;51.058;13.826;2023-01-19T08:41:37;8.40;;;6.13;;
64619;SDS011;51029;51.058;13.826;2023-01-19T08:44:02;8.33;;;5.77;;
64619;SDS011;51029;51.058;13.826;2023-01-19T08:46:28;9.07;;;7.53;;
64619;SDS011;51029;51.058;13.826;2023-01-19T08:48:53;10.00;;;6.90;;
64619;SDS011;51029;51.058;13.826;2023-01-19T08:51:19;8.80;;;6.43;;
64619;SDS011;51029;51.058;13.826;2023-01-19T08:53:45;8.23;;;6.83;;
64619;SDS011;51029;51.058;13.826;2023-01-19T08:56:11;8.57;;;7.67;;
64619;SDS011;51029;51.058;13.826;2023-01-19T08:58:40;7.50;;;6.73;;
64619;SDS011;51029;51.058;13.826;2023-01-19T09:01:07;6.80;;;6.10;;
64619;SDS011;51029;51.058;13.826;2023-01-19T09:03:35;7.47;;;6.33;;
64619;SDS011;51029;51.058;13.826;2023-01-19T09:06:01;7.97;;;6.30;;
64619;SDS011;51029;51.058;13.826;2023-01-19T09:08:33;8.90;;;5.50;;
64619;SDS011;51029;51.058;13.826;2023-01-19T09:10:58;9.67;;;7.30;;
64619;SDS011;51029;51.058;13.826;2023-01-19T09:13:24;8.90;;;6.23;;
64619;SDS011;51029;51.058;13.826;2023-01-19T09:15:50;7.93;;;6.50;;
64619;SDS011;51029;51.058;13.826;2023-01-19T09:18:17;5.50;;;4.63;;
64619;SDS011;51029;51.058;13.826;2023-01-19T09:20:44;7.10;;;5.33;;
64619;SDS011;51029;51.058;13.826;2023-01-19T09:23:12;4.73;;;4.20;;
64619;SDS011;51029;51.058;13.826;2023-01-19T09:25:40;8.90;;;6.97;;
64619;SDS011;51029;51.058;13.826;2023-01-19T09:28:07;10.03;;;6.87;;
64619;SDS011;51029;51.058;13.826;2023-01-19T09:30:35;8.97;;;6.37;;
64619;SDS011;51029;51.058;13.826;2023-01-19T09:33:03;10.27;;;7.33;;
64619;SDS011;51029;51.058;13.826;2023-01-19T09:35:34;9.63;;;6.70;;
64619;SDS011;51029;51.058;13.826;2023-01-19T09:38:00;8.90;;;6.23;;
64619;SDS011;51029;51.058;13.826;2023-01-19T09:40:26;6.63;;;4.80;;
64619;SDS011;51029;51.058;13.826;2023-01-19T09:42:56;8.03;;;4.90;;
64619;SDS011;51029;51.058;13.826;2023-01-19T09:45:50;8.47;;;5.87;;
64619;SDS011;51029;51.058;13.826;2023-01-19T09:51:26;7.67;;;4.83;;
64619;SDS011;51029;51.058;13.826;2023-01-19T09:56:42;5.67;;;4.60;;
64619;SDS011;51029;51.058;13.826;2023-01-19T09:59:25;6.63;;;4.50;;
64619;SDS011;51029;51.058;13.826;2023-01-19T10:07:31;6.60;;;4.30;;
64619;SDS011;51029;51.058;13.826;2023-01-19T10:10:03;6.90;;;3.63;;
64619;SDS011;51029;51.058;13.826;2023-01-19T10:20:13;6.03;;;5.43;;
64619;SDS011;51029;51.058;13.826;2023-01-19T10:22:46;30.67;;;24.03;;
64619;SDS011;51029;51.058;13.826;2023-01-19T10:25:14;6.70;;;4.50;;
64619;SDS011;51029;51.058;13.826;2023-01-19T10:27:43;5.77;;;4.43;;
64619;SDS011;51029;51.058;13.826;2023-01-19T10:30:14;6.03;;;4.17;;
64619;SDS011;51029;51.058;13.826;2023-01-19T10:32:44;5.97;;;4.60;;
64619;SDS011;51029;51.058;13.826;2023-01-19T10:35:14;5.67;;;4.00;;
64619;SDS011;51029;51.058;13.826;2023-01-19T10:37:48;5.57;;;3.83;;
64619;SDS011;51029;51.058;13.826;2023-01-19T10:43:34;5.00;;;3.60;;
64619;SDS011;51029;51.058;13.826;2023-01-19T10:46:06;5.90;;;4.27;;
64619;SDS011;51029;51.058;13.826;2023-01-19T10:48:41;4.60;;;3.93;;
64619;SDS011;51029;51.058;13.826;2023-01-19T10:51:08;5.10;;;3.40;;
64619;SDS011;51029;51.058;13.826;2023-01-19T10:53:34;5.93;;;4.43;;
64619;SDS011;51029;51.058;13.826;2023-01-19T10:56:20;5.13;;;3.90;;
64619;SDS011;51029;51.058;13.826;2023-01-19T10:58:51;6.10;;;3.67;;
64619;SDS011;51029;51.058;13.826;2023-01-19T11:03:44;5.97;;;3.57;;
64619;SDS011;51029;51.058;13.826;2023-01-19T11:08:41;5.17;;;4.17;;
64619;SDS011;51029;51.058;13.826;2023-01-19T11:11:08;5.90;;;4.30;;
64619;SDS011;51029;51.058;13.826;2023-01-19T11:13:36;4.63;;;4.00;;
64619;SDS011;51029;51.058;13.826;2023-01-19T11:18:51;5.83;;;4.23;;
64619;SDS011;51029;51.058;13.826;2023-01-19T11:21:20;4.97;;;4.10;;
64619;SDS011;51029;51.058;13.826;2023-01-19T11:23:49;5.40;;;3.93;;
64619;SDS011;51029;51.058;13.826;2023-01-19T11:26:28;4.93;;;4.10;;
64619;SDS011;51029;51.058;13.826;2023-01-19T11:28:58;6.40;;;4.63;;
64619;SDS011;51029;51.058;13.826;2023-01-19T11:33:52;5.67;;;4.40;;
64619;SDS011;51029;51.058;13.826;2023-01-19T11:36:23;15.77;;;11.20;;
64619;SDS011;51029;51.058;13.826;2023-01-19T11:38:52;6.60;;;5.30;;
64619;SDS011;51029;51.058;13.826;2023-01-19T11:41:21;8.33;;;5.53;;
64619;SDS011;51029;51.058;13.826;2023-01-19T11:43:57;6.90;;;5.53;;
64619;SDS011;51029;51.058;13.826;2023-01-19T11:46:43;6.40;;;5.13;;
64619;SDS011;51029;51.058;13.826;2023-01-19T11:49:31;6.43;;;5.27;;
64619;SDS011;51029;51.058;13.826;2023-01-19T11:54:51;5.33;;;4.83;;
64619;SDS011;51029;51.058;13.826;2023-01-19T11:57:24;6.73;;;4.57;;
64619;SDS011;51029;51.058;13.826;2023-01-19T11:59:51;6.60;;;5.13;;
64619;SDS011;51029;51.058;13.826;2023-01-19T12:02:25;5.80;;;4.83;;
64619;SDS011;51029;51.058;13.826;2023-01-19T12:04:57;5.97;;;4.97;;
64619;SDS011;51029;51.058;13.826;2023-01-19T12:07:29;6.87;;;5.20;;
64619;SDS011;51029;51.058;13.826;2023-01-19T12:10:05;8.13;;;4.80;;
64619;SDS011;51029;51.058;13.826;2023-01-19T12:12:40;6.83;;;4.87;;
64619;SDS011;51029;51.058;13.826;2023-01-19T12:15:14;8.53;;;5.70;;
64619;SDS011;51029;51.058;13.826;2023-01-19T12:17:50;6.33;;;5.23;;
64619;SDS011;51029;51.058;13.826;2023-01-19T12:23:13;7.00;;;5.43;;
64619;SDS011;51029;51.058;13.826;2023-01-19T12:25:57;6.43;;;4.80;;
64619;SDS011;51029;51.058;13.826;2023-01-19T12:28:31;7.60;;;4.77;;
64619;SDS011;51029;51.058;13.826;2023-01-19T12:31:00;6.80;;;5.03;;
64619;SDS011;51029;51.058;13.826;2023-01-19T12:35:57;6.70;;;4.97;;
64619;SDS011;51029;51.058;13.826;2023-01-19T12:38:44;7.43;;;5.17;;
64619;SDS011;51029;51.058;13.826;2023-01-19T12:41:26;5.83;;;5.20;;
64619;SDS011;51029;51.058;13.826;2023-01-19T12:46:38;12.80;;;8.17;;
64619;SDS011;51029;51.058;13.826;2023-01-19T12:49:09;6.27;;;4.97;;
64619;SDS011;51029;51.058;13.826;2023-01-19T12:51:47;7.73;;;5.00;;
64619;SDS011;51029;51.058;13.826;2023-01-19T12:54:36;4.63;;;4.03;;
64619;SDS011;51029;51.058;13.826;2023-01-19T12:57:03;5.17;;;4.40;;
64619;SDS011;51029;51.058;13.826;2023-01-19T12:59:38;5.07;;;3.93;;
64619;SDS011;51029;51.058;13.826;2023-01-19T13:04:42;5.67;;;3.70;;
64619;SDS011;51029;51.058;13.826;2023-01-19T13:07:30;6.07;;;3.50;;
64619;SDS011;51029;51.058;13.826;2023-01-19T13:13:18;4.23;;;3.73;;
64619;SDS011;51029;51.058;13.826;2023-01-19T13:15:44;5.17;;;3.93;;
64619;SDS011;51029;51.058;13.826;2023-01-19T13:18:31;8.67;;;4.97;;
64619;SDS011;51029;51.058;13.826;2023-01-19T13:21:00;5.10;;;4.03;;
64619;SDS011;51029;51.058;13.826;2023-01-19T13:23:50;6.20;;;4.03;;
64619;SDS011;51029;51.058;13.826;2023-01-19T13:26:14;6.67;;;4.13;;
64619;SDS011;51029;51.058;13.826;2023-01-19T13:28:43;7.17;;;4.17;;
64619;SDS011;51029;51.058;13.826;2023-01-19T13:31:10;4.30;;;3.90;;
64619;SDS011;51029;51.058;13.826;2023-01-19T13:36:29;5.03;;;3.73;;
64619;SDS011;51029;51.058;13.826;2023-01-19T13:38:58;6.63;;;4.30;;
64619;SDS011;51029;51.058;13.826;2023-01-19T13:41:28;3.90;;;3.40;;
64619;SDS011;51029;51.058;13.826;2023-01-19T13:44:00;4.23;;;3.03;;
64619;SDS011;51029;51.058;13.826;2023-01-19T13:46:45;5.07;;;3.60;;
64619;SDS011;51029;51.058;13.826;2023-01-19T13:52:11;5.87;;;4.10;;
64619;SDS011;51029;51.058;13.826;2023-01-19T14:03:10;4.30;;;3.50;;
64619;SDS011;51029;51.058;13.826;2023-01-19T14:05:37;4.60;;;3.57;;
64619;SDS011;51029;51.058;13.826;2023-01-19T14:10:35;5.30;;;4.03;;
64619;SDS011;51029;51.058;13.826;2023-01-19T14:13:12;5.10;;;3.90;;
64619;SDS011;51029;51.058;13.826;2023-01-19T14:15:46;4.57;;;4.10;;
64619;SDS011;51029;51.058;13.826;2023-01-19T14:18:23;5.70;;;4.00;;
64619;SDS011;51029;51.058;13.826;2023-01-19T14:26:01;106.70;;;53.77;;
64619;SDS011;51029;51.058;13.826;2023-01-19T14:28:34;72.63;;;37.13;;
64619;SDS011;51029;51.058;13.826;2023-01-19T14:31:20;8.57;;;5.90;;
64619;SDS011;51029;51.058;13.826;2023-01-19T14:33:49;5.53;;;4.70;;
64619;SDS011;51029;51.058;13.826;2023-01-19T14:38:51;5.50;;;4.00;;
64619;SDS011;51029;51.058;13.826;2023-01-19T14:41:23;7.30;;;4.83;;
64619;SDS011;51029;51.058;13.826;2023-01-19T14:43:54;7.13;;;4.77;;
64619;SDS011;51029;51.058;13.826;2023-01-19T14:46:20;8.73;;;6.70;;
64619;SDS011;51029;51.058;13.826;2023-01-19T14:48:47;6.17;;;4.60;;
64619;SDS011;51029;51.058;13.826;2023-01-19T14:51:15;6.57;;;4.50;;
64619;SDS011;51029;51.058;13.826;2023-01-19T14:53:51;7.53;;;4.93;;
64619;SDS011;51029;51.058;13.826;2023-01-19T14:56:23;5.67;;;4.83;;
64619;SDS011;51029;51.058;13.826;2023-01-19T14:58:57;8.73;;;5.50;;
64619;SDS011;51029;51.058;13.826;2023-01-19T15:01:25;7.20;;;5.23;;
64619;SDS011;51029;51.058;13.826;2023-01-19T15:03:55;6.70;;;5.20;;
64619;SDS011;51029;51.058;13.826;2023-01-19T15:06:21;8.40;;;5.77;;
64619;SDS011;51029;51.058;13.826;2023-01-19T15:08:48;6.77;;;5.40;;
64619;SDS011;51029;51.058;13.826;2023-01-19T15:11:25;7.20;;;5.60;;
64619;SDS011;51029;51.058;13.826;2023-01-19T15:13:56;23.80;;;15.77;;
64619;SDS011;51029;51.058;13.826;2023-01-19T15:16:23;9.23;;;7.20;;
64619;SDS011;51029;51.058;13.826;2023-01-19T15:18:49;13.07;;;9.77;;
64619;SDS011;51029;51.058;13.826;2023-01-19T15:21:16;9.00;;;5.83;;
64619;SDS011;51029;51.058;13.826;2023-01-19T15:23:47;7.33;;;6.03;;
64619;SDS011;51029;51.058;13.826;2023-01-19T15:26:16;54.93;;;32.97;;
64619;SDS011;51029;51.058;13.826;2023-01-19T15:28:43;32.23;;;24.73;;
64619;SDS011;51029;51.058;13.826;2023-01-19T15:31:12;17.23;;;14.53;;
64619;SDS011;51029;51.058;13.826;2023-01-19T15:33:40;6.20;;;5.60;;
64619;SDS011;51029;51.058;13.826;2023-01-19T15:36:09;8.50;;;5.70;;
64619;SDS011;51029;51.058;13.826;2023-01-19T15:38:38;7.60;;;5.93;;
64619;SDS011;51029;51.058;13.826;2023-01-19T15:43:59;8.80;;;6.03;;
64619;SDS011;51029;51.058;13.826;2023-01-19T15:46:25;9.57;;;6.60;;
64619;SDS011;51029;51.058;13.826;2023-01-19T15:48:51;7.07;;;6.07;;
64619;SDS011;51029;51.058;13.826;2023-01-19T15:51:18;8.23;;;5.50;;
64619;SDS011;51029;51.058;13.826;2023-01-19T15:53:45;7.53;;;5.83;;
64619;SDS011;51029;51.058;13.826;2023-01-19T15:58:41;7.70;;;6.37;;
64619;SDS011;51029;51.058;13.826;2023-01-19T16:01:13;6.83;;;5.87;;
64619;SDS011;51029;51.058;13.826;2023-01-19T16:03:46;7.83;;;7.03;;
64619;SDS011;51029;51.058;13.826;2023-01-19T16:06:12;10.07;;;6.87;;
64619;SDS011;51029;51.058;13.826;2023-01-19T16:08:40;10.13;;;7.73;;
64619;SDS011;51029;51.058;13.826;2023-01-19T16:11:07;10.40;;;6.93;;
64619;SDS011;51029;51.058;13.826;2023-01-19T16:13:34;11.40;;;6.93;;